Time;durP1;ratioP1;P1;durP2;ratioP2;P2;SDS_P1;SDS_P2;PMS_P1;PMS_P2;Temp;Humidity;BMP_temperature;BMP_pressure;BME280_temperature;BME280_humidity;BME280_pressure;Samples;Min_cycle;Max_cycle;Signal;HPM_P1;HPM_P2
2023/02/25 00:01:55;;;;;;;;;26.75;25.50;;;;;10.73;76.74;100813.34;146621;609;46010;-72
2023/02/25 00:05:03;;;;;;;;;29.75;26.25;;;;;10.67;76.02;100802.66;146615;583;46016;-69
2023/02/25 00:08:15;;;;;;;;;30.75;24.75;;;;;10.65;76.00;100812.03;146619;617;46020;-70
2023/02/25 00:11:31;;;;;;;;;29.50;27.25;;;;;10.59;75.99;100814.31;146616;630;46016;-69
2023/02/25 00:14:34;;;;;;;;;27.50;26.75;;;;;10.53;76.07;100821.75;146621;622;45021;-70
2023/02/25 00:17:31;;;;;;;;;45.00;34.50;;;;;10.47;76.72;100817.16;146616;566;47012;-71
2023/02/25 00:20:30;;;;;;;;;47.75;38.25;;;;;10.39;77.68;100816.75;146620;564;46011;-69
2023/02/25 00:23:52;;;;;;;;;41.25;34.50;;;;;10.33;78.72;100815.53;146618;578;46016;-70
2023/02/25 00:26:49;;;;;;;;;47.75;34.50;;;;;10.26;79.95;100818.56;146619;586;46021;-68
2023/02/25 00:29:50;;;;;;;;;47.50;35.75;;;;;9.48;80.08;100685.72;146616;569;46016;-68
2023/02/25 00:32:55;;;;;;;;;;;;;;;;;;;;;
2023/02/25 00:35:50;;;;;;;;;31.75;28.75;;;;;10.12;81.08;100800.59;146616;569;46016;-68
2023/02/25 00:38:59;;;;;;;;;26.75;23.75;;;;;8.68;80.33;100538.16;146620;576;46020;-68
2023/02/25 00:41:52;;;;;;;;;27.75;25.50;;;;;10.14;81.33;100788.59;146617;580;47013;-69
2023/02/25 00:44:58;;;;;;;;;29.25;25.25;;;;;10.17;79.90;100790.47;146618;573;46020;-68
2023/02/25 00:47:56;;;;;;;;;27.00;25.00;;;;;10.21;81.63;100787.22;146617;573;46016;-68
2023/02/25 00:50:54;;;;;;;;;38.00;29.75;;;;;10.17;81.42;100780.09;146619;576;46021;-69
2023/02/25 00:54:02;;;;;;;;;24.75;23.00;;;;;10.16;80.38;100781.81;146618;585;46012;-68
2023/02/25 00:57:14;;;;;;;;;27.50;24.50;;;;;8.30;80.47;100457.66;146620;707;46011;-69
2023/02/25 01:00:14;;;;;;;;;34.00;29.75;;;;;10.19;80.09;100786.25;146614;575;46016;-68
2023/02/25 01:03:07;;;;;;;;;40.25;29.50;;;;;10.17;79.40;100777.50;146619;590;46020;-69
2023/02/25 01:06:03;;;;;;;;;30.00;25.75;;;;;9.38;79.72;100639.44;146616;600;46014;-69
2023/02/25 01:09:09;;;;;;;;;;;;;;;;;;;;;
2023/02/25 01:12:15;;;;;;;;;24.50;23.25;;;;;10.07;79.84;100780.41;146616;599;47013;-68
2023/02/25 01:15:24;;;;;;;;;28.75;24.00;;;;;8.32;79.47;100476.75;146619;631;46010;-70
2023/02/25 01:18:43;;;;;;;;;26.75;21.00;;;;;10.09;80.62;100782.28;146617;598;46015;-69
2023/02/25 01:21:54;;;;;;;;;24.75;21.00;;;;;10.06;80.35;100770.84;146618;654;46020;-66
2023/02/25 01:24:49;;;;;;;;;24.25;22.25;;;;;10.07;80.77;100770.94;146616;609;46016;-66
2023/02/25 01:28:05;;;;;;;;;28.25;22.25;;;;;10.07;80.15;100772.66;146619;694;46021;-68
2023/02/25 01:31:10;;;;;;;;;22.75;19.00;;;;;10.04;80.67;100762.13;146615;586;46912;-68
2023/02/25 01:34:06;;;;;;;;;28.50;20.50;;;;;10.04;80.25;100762.13;146618;576;46020;-68
2023/02/25 01:37:07;;;;;;;;;28.25;24.50;;;;;10.03;80.68;100757.72;146615;563;46016;-68
2023/02/25 01:40:03;;;;;;;;;26.75;21.75;;;;;10.03;79.98;100758.66;146618;565;46013;-67
2023/02/25 01:43:21;;;;;;;;;24.75;21.50;;;;;9.99;79.77;100760.97;146618;586;46014;-67
2023/02/25 01:46:33;;;;;;;;;29.25;26.00;;;;;9.95;79.47;100760.81;146620;608;46010;-67
2023/02/25 01:49:55;;;;;;;;;31.50;22.50;;;;;10.00;78.96;100762.75;146618;612;46016;-67
2023/02/25 01:53:02;;;;;;;;;18.25;17.50;;;;;10.05;80.05;100761.31;146621;602;46010;-67
2023/02/25 01:56:05;;;;;;;;;26.50;20.50;;;;;10.03;79.13;100756.06;146617;599;46017;-67
2023/02/25 01:59:34;;;;;;;;;34.75;30.00;;;;;8.23;79.19;100454.66;146618;652;47020;-69
2023/02/25 02:02:34;;;;;;;;;31.75;27.75;;;;;9.87;80.26;100763.78;146618;593;46016;-70
2023/02/25 02:06:07;;;;;;;;;30.50;24.75;;;;;8.36;81.63;100506.22;146620;736;46020;-68
2023/02/25 02:09:04;;;;;;;;;26.50;25.75;;;;;9.74;81.05;100753.56;146616;594;47016;-69
2023/02/25 02:12:24;;;;;;;;;37.25;28.50;;;;;9.78;80.94;100756.44;146622;704;46010;-70
2023/02/25 02:15:32;;;;;;;;;37.25;29.50;;;;;8.10;80.38;100456.56;146615;587;46016;-69
2023/02/25 02:18:44;;;;;;;;;33.50;27.50;;;;;9.86;81.46;100752.53;146621;671;46011;-68
2023/02/25 02:22:23;;;;;;;;;32.50;30.00;;;;;9.89;81.00;100751.81;146616;576;46016;-68
2023/02/25 02:26:04;;;;;;;;;34.00;28.75;;;;;9.86;82.50;100749.06;146621;616;46013;-68
2023/02/25 02:29:44;;;;;;;;;30.75;25.50;;;;;9.82;81.65;100745.41;146618;607;45016;-67
2023/02/25 02:33:18;;;;;;;;;31.25;28.00;;;;;9.83;80.67;100746.31;146617;734;47020;-70
2023/02/25 02:37:03;;;;;;;;;35.75;26.25;;;;;8.05;81.20;100427.00;146617;580;45033;-70
2023/02/25 02:40:33;;;;;;;;;29.75;27.00;;;;;9.86;81.43;100743.88;146618;571;46020;-69
2023/02/25 02:43:47;;;;;;;;;29.00;25.25;;;;;9.82;81.42;100748.00;146617;569;46016;-68
2023/02/25 02:47:10;;;;;;;;;28.25;24.50;;;;;8.15;79.51;100466.25;146621;653;46020;-68
2023/02/25 02:50:40;;;;;;;;;25.25;21.50;;;;;9.75;79.76;100744.97;146614;586;46912;-69
2023/02/25 02:54:06;;;;;;;;;23.75;21.75;;;;;9.78;79.30;100748.66;146619;609;46020;-69
2023/02/25 02:57:34;;;;;;;;;22.75;20.50;;;;;9.82;79.67;100750.59;146615;575;46016;-70
2023/02/25 03:00:54;;;;;;;;;23.00;16.75;;;;;9.77;79.28;100745.97;146621;683;45020;-68
2023/02/25 03:04:08;;;;;;;;;20.25;14.00;;;;;9.71;78.35;100750.00;146617;579;46014;-69
2023/02/25 03:07:22;;;;;;;;;24.50;23.50;;;;;9.69;78.51;100753.31;146619;573;45028;-67
2023/02/25 03:10:27;;;;;;;;;19.50;18.75;;;;;9.63;78.16;100753.88;146615;615;46016;-68
2023/02/25 03:13:31;;;;;;;;;20.25;20.00;;;;;9.52;78.72;100747.19;146616;560;46020;-71
2023/02/25 03:16:37;;;;;;;;;20.25;16.25;;;;;9.39;79.05;100740.44;146617;566;46016;-67
2023/02/25 03:20:05;;;;;;;;;20.25;18.25;;;;;7.15;78.40;100368.47;146620;569;45021;-67
2023/02/25 03:23:26;;;;;;;;;18.00;15.50;;;;;9.19;79.62;100741.94;146616;632;46016;-67
2023/02/25 03:26:39;;;;;;;;;19.00;16.25;;;;;9.15;79.81;100741.66;146618;604;46020;-67
2023/02/25 03:29:46;;;;;;;;;16.25;15.00;;;;;9.13;79.94;100743.28;146619;714;45033;-70
2023/02/25 03:33:05;;;;;;;;;15.00;14.50;;;;;7.40;79.19;100439.56;146621;577;46021;-69
2023/02/25 03:36:22;;;;;;;;;19.25;16.50;;;;;9.17;79.56;100740.06;146617;597;46014;-68
2023/02/25 03:39:45;;;;;;;;;19.00;14.00;;;;;7.44;78.73;100446.66;146615;616;47010;-69
2023/02/25 03:43:20;;;;;;;;;21.50;16.75;;;;;9.06;79.40;100739.41;146618;595;46012;-68
2023/02/25 03:46:34;;;;;;;;;22.50;15.00;;;;;8.97;79.55;100737.22;146620;582;46010;-70
2023/02/25 03:50:01;;;;;;;;;20.25;17.25;;;;;8.90;79.59;100737.63;146618;621;46915;-70
2023/02/25 03:53:09;;;;;;;;;26.25;22.50;;;;;8.85;79.40;100741.69;146620;591;46020;-69
2023/02/25 03:56:24;;;;;;;;;24.25;20.25;;;;;8.85;79.82;100738.19;146618;662;46013;-72
2023/02/25 03:59:27;;;;;;;;;30.50;24.75;;;;;8.88;78.79;100735.75;146619;594;46020;-71
2023/02/25 04:02:49;;;;;;;;;;;;;;;;;;;;;
2023/02/25 04:05:47;;;;;;;;;20.75;16.75;;;;;8.88;79.29;100728.00;146622;596;45022;-72
2023/02/25 04:08:56;;;;;;;;;19.00;14.75;;;;;8.90;79.22;100721.25;146618;582;46016;-71
2023/02/25 04:12:00;;;;;;;;;15.50;15.00;;;;;8.90;79.33;100729.88;146620;622;46021;-70
2023/02/25 04:14:58;;;;;;;;;21.50;14.75;;;;;8.93;79.00;100727.47;146617;563;46016;-71
2023/02/25 04:17:55;;;;;;;;;20.00;17.00;;;;;8.96;79.26;100721.59;146620;655;46010;-70
2023/02/25 04:21:02;;;;;;;;;16.25;14.00;;;;;8.97;78.39;100720.78;146614;591;46012;-70
2023/02/25 04:24:11;;;;;;;;;;;;;;;;;;;;;
2023/02/25 04:27:19;;;;;;;;;14.25;12.25;;;;;8.90;78.29;100722.13;146618;650;46016;-70
2023/02/25 04:30:22;;;;;;;;;16.50;13.00;;;;;8.88;78.55;100723.75;146617;663;47012;-68
2023/02/25 04:33:36;;;;;;;;;17.25;14.00;;;;;8.00;77.94;100574.69;146617;616;47017;-68
2023/02/25 04:36:46;;;;;;;;;;;;;;;;;;;;;
2023/02/25 04:39:43;;;;;;;;;15.25;12.75;;;;;9.01;78.09;100736.59;146616;565;46012;-68
2023/02/25 04:42:44;;;;;;;;;16.50;12.75;;;;;9.03;78.28;100734.06;146617;700;46010;-68
2023/02/25 04:45:59;;;;;;;;;11.50;11.00;;;;;9.07;78.52;100735.16;146618;572;46016;-68
2023/02/25 04:49:06;;;;;;;;;18.00;15.00;;;;;9.07;77.99;100741.22;146622;602;46010;-67
2023/02/25 04:52:02;;;;;;;;;17.25;15.00;;;;;9.06;77.94;100733.34;146617;601;46014;-69
2023/02/25 04:55:02;;;;;;;;;16.75;14.25;;;;;9.05;78.29;100721.25;146621;619;46012;-69
2023/02/25 04:57:57;;;;;;;;;18.00;16.00;;;;;9.07;77.71;100730.00;146618;579;46016;-68
2023/02/25 05:01:01;;;;;;;;;15.25;14.00;;;;;9.02;77.98;100721.94;146621;668;46020;-69
2023/02/25 05:04:11;;;;;;;;;18.25;15.25;;;;;8.99;78.16;100733.00;146616;564;46014;-69
2023/02/25 05:07:35;;;;;;;;;13.00;12.50;;;;;8.99;77.53;100724.34;146619;594;46020;-69
2023/02/25 05:10:32;;;;;;;;;12.50;11.50;;;;;9.04;77.75;100728.13;146615;609;45018;-71
2023/02/25 05:13:55;;;;;;;;;16.25;13.75;;;;;7.25;77.12;100434.38;146620;565;45020;-69
2023/02/25 05:17:18;;;;;;;;;20.00;17.25;;;;;7.64;77.79;100473.66;146618;601;46015;-70
2023/02/25 05:20:19;;;;;;;;;18.50;12.50;;;;;9.20;76.53;100745.41;146620;569;46020;-69
2023/02/25 05:23:35;;;;;;;;;13.00;11.00;;;;;7.40;75.94;100435.28;146616;627;46912;-70
2023/02/25 05:26:43;;;;;;;;;;;;;;;;;;;;;
2023/02/25 05:29:50;;;;;;;;;15.25;12.25;;;;;9.15;76.89;100737.34;146618;613;46014;-70
2023/02/25 05:32:57;;;;;;;;;20.00;14.00;;;;;9.22;76.64;100728.25;146621;654;46011;-70
2023/02/25 05:36:02;;;;;;;;;19.00;16.75;;;;;7.15;76.24;100354.69;146616;594;46012;-70
2023/02/25 05:38:57;;;;;;;;;20.50;15.25;;;;;9.45;76.41;100734.72;146620;612;46020;-70
2023/02/25 05:41:50;;;;;;;;;16.00;13.75;;;;;9.56;76.64;100735.31;146621;600;45017;-71
2023/02/25 05:44:43;;;;;;;;;17.50;14.75;;;;;9.82;77.56;100739.34;146621;598;46020;-70
2023/02/25 05:47:35;;;;;;;;;15.75;14.00;;;;;10.19;77.07;100739.63;146617;572;47013;-69
2023/02/25 05:50:30;;;;;;;;;17.75;14.75;;;;;10.62;78.02;100739.25;146620;615;46020;-68
2023/02/25 05:53:23;;;;;;;;;17.75;15.00;;;;;11.23;78.52;100746.66;146617;564;46016;-69
2023/02/25 05:56:18;;;;;;;;;15.75;14.50;;;;;11.83;75.49;100736.50;146621;581;46012;-70
2023/02/25 05:59:29;;;;;;;;;18.75;15.00;;;;;10.70;71.50;100441.47;146615;607;46016;-68
2023/02/25 06:02:39;;;;;;;;;25.00;22.25;;;;;12.90;68.73;100743.88;146618;571;46021;-71
2023/02/25 06:05:43;;;;;;;;;29.75;27.50;;;;;13.35;67.77;100750.09;146618;612;46012;-69
2023/02/25 06:09:05;;;;;;;;;29.50;25.50;;;;;12.11;66.08;100457.97;146619;586;46020;-68
2023/02/25 06:11:59;;;;;;;;;28.00;24.50;;;;;14.08;64.65;100752.09;146617;569;46016;-69
2023/02/25 06:15:10;;;;;;;;;35.75;29.25;;;;;14.34;62.53;100752.16;146620;600;46010;-70
2023/02/25 06:18:20;;;;;;;;;29.00;26.50;;;;;14.46;63.23;100749.13;146617;600;46017;-69
2023/02/25 06:21:30;;;;;;;;;38.00;30.25;;;;;12.95;64.56;100459.53;146621;586;46020;-69
2023/02/25 06:24:39;;;;;;;;;;;;;;;;;;;;;
2023/02/25 06:27:44;;;;;;;;;31.50;28.00;;;;;15.17;64.29;100752.44;146619;586;46020;-70
2023/02/25 06:30:43;;;;;;;;;30.25;25.00;;;;;15.54;63.27;100744.06;146617;566;47012;-70
2023/02/25 06:33:53;;;;;;;;;32.25;27.25;;;;;14.22;61.26;100468.34;146620;592;46010;-68
2023/02/25 06:37:15;;;;;;;;;41.50;32.25;;;;;15.97;61.58;100740.19;146615;572;46014;-68
2023/02/25 06:40:18;;;;;;;;;38.25;30.75;;;;;14.64;60.81;100498.37;146618;594;46021;-69
2023/02/25 06:43:21;;;;;;;;;32.75;29.00;;;;;16.08;61.49;100741.38;146616;564;46016;-70
2023/02/25 06:46:23;;;;;;;;;34.00;28.75;;;;;16.12;61.45;100742.34;146621;717;46011;-70
2023/02/25 06:49:27;;;;;;;;;66.00;50.50;;;;;16.19;61.38;100740.81;146616;641;46012;-70
2023/02/25 06:52:33;;;;;;;;;61.50;47.75;;;;;16.28;61.09;100746.28;146617;570;46021;-71
2023/02/25 06:55:37;;;;;;;;;53.75;41.75;;;;;16.29;61.71;100743.75;146617;602;46017;-70
2023/02/25 06:58:52;;;;;;;;;;;;;;;;;;;;;
2023/02/25 07:01:51;;;;;;;;;42.25;34.50;;;;;16.33;62.23;100732.50;146618;589;46014;-69
2023/02/25 07:05:01;;;;;;;;;44.50;35.50;;;;;16.33;61.13;100727.28;146620;595;46020;-69
2023/02/25 07:08:08;;;;;;;;;47.25;36.50;;;;;14.73;62.18;100460.37;146618;599;46013;-69
2023/02/25 07:11:33;;;;;;;;;43.50;33.25;;;;;16.32;63.65;100724.59;146618;610;46010;-72
2023/02/25 07:14:48;;;;;;;;;44.50;33.25;;;;;16.43;63.52;100738.87;146617;565;46012;-70
2023/02/25 07:17:49;;;;;;;;;45.75;32.00;;;;;16.60;64.23;100736.72;146621;593;46010;-73
2023/02/25 07:20:48;;;;;;;;;40.75;34.50;;;;;16.80;63.17;100732.06;146616;563;47016;-71
2023/02/25 07:23:47;;;;;;;;;44.25;36.00;;;;;16.92;62.94;100731.50;146620;565;46020;-71
2023/02/25 07:26:46;;;;;;;;;48.00;39.25;;;;;17.01;62.73;100721.25;146616;586;46016;-71
2023/02/25 07:29:41;;;;;;;;;41.00;34.50;;;;;17.13;62.58;100715.41;146619;573;46020;-71
2023/02/25 07:32:38;;;;;;;;;38.75;32.50;;;;;17.21;62.38;100722.59;146617;570;46012;-73
2023/02/25 07:35:59;;;;;;;;;48.50;40.00;;;;;15.81;62.84;100466.94;146619;630;46010;-71
2023/02/25 07:39:03;;;;;;;;;47.00;37.50;;;;;17.40;63.17;100716.06;146610;608;48911;-71
2023/02/25 07:42:17;;;;;;;;;43.75;36.00;;;;;17.50;60.59;100710.16;146621;663;46010;-73
2023/02/25 07:45:27;;;;;;;;;39.50;33.75;;;;;17.60;61.14;100713.00;146615;605;46016;-72
2023/02/25 07:48:37;;;;;;;;;;;;;;;;;;;;;
2023/02/25 07:51:32;;;;;;;;;42.00;33.75;;;;;17.87;60.60;100700.53;146610;601;46016;-72
2023/02/25 07:54:26;;;;;;;;;40.00;33.50;;;;;18.03;59.58;100703.47;146622;565;46010;-71
2023/02/25 07:57:32;;;;;;;;;39.75;31.00;;;;;18.14;58.60;100699.34;146618;595;46036;-73
2023/02/25 08:00:27;;;;;;;;;38.25;31.50;;;;;18.13;58.14;100706.34;146623;576;46010;-73
2023/02/25 08:03:28;;;;;;;;;38.00;30.75;;;;;18.06;59.22;100699.16;146617;675;46016;-72
2023/02/25 08:06:26;;;;;;;;;27.25;25.00;;;;;18.00;59.04;100693.81;146619;573;47030;-72
2023/02/25 08:09:33;;;;;;;;;33.00;30.00;;;;;18.03;60.79;100688.63;146615;688;46016;-72
2023/02/25 08:12:39;;;;;;;;;33.75;30.00;;;;;16.97;59.81;100483.66;146621;585;46020;-72
2023/02/25 08:15:38;;;;;;;;;35.50;31.25;;;;;18.32;58.03;100691.84;146617;660;46017;-72
2023/02/25 08:18:33;;;;;;;;;39.25;31.50;;;;;18.34;58.83;100684.84;146617;564;46020;-72
2023/02/25 08:21:36;;;;;;;;;28.50;24.50;;;;;18.35;54.58;100680.47;146618;664;46016;-71
2023/02/25 08:24:42;;;;;;;;;;;;;;;;;;;;;
2023/02/25 08:27:38;;;;;;;;;31.00;27.25;;;;;18.27;58.14;100677.72;146617;572;46016;-71
2023/02/25 08:30:32;;;;;;;;;30.00;24.75;;;;;18.42;55.32;100682.38;146622;569;46012;-72
2023/02/25 08:33:42;;;;;;;;;24.25;24.00;;;;;18.50;55.80;100667.63;146615;583;47012;-70
2023/02/25 08:36:54;;;;;;;;;28.00;24.75;;;;;18.33;51.96;100675.22;146619;627;46020;-69
2023/02/25 08:40:19;;;;;;;;;24.75;23.75;;;;;16.60;57.15;100413.03;146616;670;46012;-70
2023/02/25 08:43:22;;;;;;;;;28.25;24.25;;;;;18.05;54.95;100665.94;146615;620;47010;-70
2023/02/25 08:46:19;;;;;;;;;13.25;9.50;;;;;18.11;56.29;100652.94;146616;576;46016;-70
2023/02/25 08:49:21;;;;;;;;;21.25;20.75;;;;;18.25;53.75;100647.94;146621;578;46010;-70
2023/02/25 08:52:26;;;;;;;;;25.25;24.00;;;;;18.33;51.80;100643.72;146618;672;46016;-69
2023/02/25 08:55:36;;;;;;;;;36.25;30.50;;;;;18.31;52.99;100644.53;146621;585;46012;-69
2023/02/25 08:58:39;;;;;;;;;30.75;27.25;;;;;18.08;53.88;100652.00;146617;599;47012;-70
2023/02/25 09:01:53;;;;;;;;;34.75;28.00;;;;;17.88;55.23;100643.69;146619;655;46021;-69
2023/02/25 09:04:57;;;;;;;;;25.75;19.25;;;;;17.87;55.57;100639.31;146613;579;46914;-70
2023/02/25 09:08:01;;;;;;;;;29.25;25.25;;;;;18.01;54.81;100635.25;146616;615;46010;-70
2023/02/25 09:11:09;;;;;;;;;25.00;24.00;;;;;18.19;54.86;100638.22;146618;582;46012;-69
2023/02/25 09:14:04;;;;;;;;;27.25;24.50;;;;;18.37;54.55;100640.28;146619;608;46013;-70
2023/02/25 09:17:02;;;;;;;;;23.00;19.00;;;;;18.42;53.38;100643.87;146617;578;46016;-69
2023/02/25 09:20:00;;;;;;;;;23.25;22.50;;;;;18.45;53.63;100650.94;146618;633;46020;-70
2023/02/25 09:23:13;;;;;;;;;25.50;23.00;;;;;18.53;56.90;100643.19;146617;704;46016;-71
2023/02/25 09:26:12;;;;;;;;;24.50;23.00;;;;;18.51;52.37;100643.19;146619;631;46012;-70
2023/02/25 09:29:17;;;;;;;;;23.00;22.00;;;;;18.45;52.54;100633.44;146615;564;46017;-70
2023/02/25 09:32:24;;;;;;;;;19.25;17.25;;;;;18.39;54.23;100633.34;146619;594;45020;-70
2023/02/25 09:35:35;;;;;;;;;18.50;16.00;;;;;18.46;52.28;100642.19;146613;611;47016;-69
2023/02/25 09:38:29;;;;;;;;;16.25;13.50;;;;;18.45;52.85;100635.19;146619;579;46021;-69
2023/02/25 09:42:15;;;;;;;;;;;;;;;;;;;;;
2023/02/25 09:45:26;;;;;;;;;19.75;16.25;;;;;17.10;56.28;100375.63;146615;564;46021;-69
2023/02/25 09:48:34;;;;;;;;;21.00;18.75;;;;;18.54;54.38;100639.72;146616;575;46027;-70
2023/02/25 09:51:54;;;;;;;;;18.75;17.00;;;;;18.45;56.26;100630.81;146622;617;46010;-69
2023/02/25 09:55:07;;;;;;;;;7.50;5.00;;;;;18.48;52.05;100623.84;146616;593;47016;-69
2023/02/25 09:58:55;;;;;;;;;15.50;14.50;;;;;17.85;56.96;100492.44;146621;677;46012;-69
2023/02/25 10:02:26;;;;;;;;;13.25;11.50;;;;;17.34;54.35;100346.41;146619;611;46012;-69
2023/02/25 10:05:48;;;;;;;;;14.50;14.25;;;;;17.75;54.14;100383.78;146620;643;46020;-69
2023/02/25 10:09:21;;;;;;;;;18.25;17.00;;;;;18.09;55.53;100394.88;146610;626;46016;-71
2023/02/25 10:13:06;;;;;;;;;16.00;14.00;;;;;19.65;53.74;100610.75;146617;563;46020;-70
2023/02/25 10:16:53;;;;;;;;;21.75;19.00;;;;;19.88;55.03;100604.03;146618;582;46012;-70
2023/02/25 10:20:33;;;;;;;;;21.75;17.00;;;;;18.29;54.41;100300.69;146614;655;46020;-71
2023/02/25 10:23:56;;;;;;;;;25.75;21.25;;;;;20.28;53.32;100594.81;146617;589;46016;-70
2023/02/25 10:27:02;;;;;;;;;24.00;21.00;;;;;20.43;51.19;100593.16;146616;652;46022;-70
2023/02/25 10:30:11;;;;;;;;;20.50;20.25;;;;;20.57;49.46;100595.97;146617;594;46016;-70
2023/02/25 10:33:35;;;;;;;;;18.75;16.50;;;;;20.47;53.45;100587.09;146618;563;46010;-71
2023/02/25 10:36:38;;;;;;;;;23.50;20.00;;;;;20.30;50.79;100585.16;146616;672;46915;-70
2023/02/25 10:39:36;;;;;;;;;23.75;21.25;;;;;20.24;51.80;100578.97;146620;622;46012;-71
2023/02/25 10:42:47;;;;;;;;;27.50;23.75;;;;;20.17;50.00;100579.78;146616;636;46016;-71
2023/02/25 10:45:46;;;;;;;;;18.75;17.00;;;;;20.03;51.08;100566.47;146618;574;46010;-72
2023/02/25 10:48:44;;;;;;;;;24.75;23.50;;;;;19.31;50.18;100448.16;146617;665;46012;-70
2023/02/25 10:52:09;;;;;;;;;19.00;18.25;;;;;20.00;48.40;100561.16;146621;579;45021;-68
2023/02/25 10:55:13;;;;;;;;;23.25;21.50;;;;;20.08;47.83;100555.13;146617;600;46912;-69
2023/02/25 10:58:30;;;;;;;;;19.00;18.75;;;;;19.59;46.52;100438.84;146617;619;46029;-72
2023/02/25 11:01:54;;;;;;;;;18.75;16.75;;;;;20.36;51.27;100544.84;146616;563;46014;-69
2023/02/25 11:04:53;;;;;;;;;18.75;16.75;;;;;20.59;49.72;100534.53;146619;635;47010;-69
2023/02/25 11:08:03;;;;;;;;;19.00;17.75;;;;;20.90;49.17;100530.34;146616;600;47014;-70
2023/02/25 11:11:28;;;;;;;;;22.50;21.25;;;;;20.54;43.88;100430.88;146618;594;46020;-70
2023/02/25 11:14:20;;;;;;;;;22.75;20.50;;;;;21.12;46.29;100519.91;146614;598;46016;-70
2023/02/25 11:17:26;;;;;;;;;21.75;18.75;;;;;20.51;44.41;100402.78;146614;648;46012;-70
2023/02/25 11:20:42;;;;;;;;;;;;;;;;;;;;;
2023/02/25 11:24:05;;;;;;;;;23.00;20.00;;;;;21.16;47.63;100511.16;146618;563;46020;-70
2023/02/25 11:27:33;;;;;;;;;23.50;20.50;;;;;20.29;49.01;100349.06;146617;600;46014;-70
2023/02/25 11:30:47;;;;;;;;;23.75;20.25;;;;;21.32;48.69;100496.28;146617;594;46020;-69
2023/02/25 11:33:56;;;;;;;;;20.00;18.00;;;;;21.48;47.66;100484.03;146618;569;46016;-69
2023/02/25 11:36:52;;;;;;;;;20.50;18.75;;;;;21.65;46.13;100490.22;146620;637;46012;-70
2023/02/25 11:39:57;;;;;;;;;23.00;20.25;;;;;21.81;50.17;100492.03;146616;635;46016;-69
2023/02/25 11:43:22;;;;;;;;;23.75;19.25;;;;;21.86;48.63;100487.63;146617;598;46021;-69
2023/02/25 11:46:32;;;;;;;;;28.50;25.75;;;;;21.88;43.67;100482.38;146613;577;46016;-69
2023/02/25 11:50:03;;;;;;;;;28.25;26.50;;;;;21.14;43.76;100367.88;146620;589;46010;-69
2023/02/25 11:53:35;;;;;;;;;23.50;21.50;;;;;21.46;47.84;100473.47;146616;579;46012;-68
2023/02/25 11:56:53;;;;;;;;;;;;;;;;;;;;;
2023/02/25 12:00:32;;;;;;;;;24.00;20.25;;;;;21.09;52.40;100462.78;146616;577;46016;-71
2023/02/25 12:04:03;;;;;;;;;22.50;22.00;;;;;21.17;48.94;100453.13;146619;572;46010;-70
2023/02/25 12:07:35;;;;;;;;;23.75;20.75;;;;;21.13;43.48;100443.47;146613;593;47014;-72
2023/02/25 12:11:32;;;;;;;;;;;;;;;;;;;;;
2023/02/25 12:15:24;;;;;;;;;19.25;18.75;;;;;20.69;45.34;100436.25;146615;565;46012;-68
2023/02/25 12:19:14;;;;;;;;;20.00;15.25;;;;;19.30;44.87;100217.72;146621;615;46010;-68
2023/02/25 12:22:55;;;;;;;;;17.00;15.25;;;;;20.40;44.42;100427.25;146616;628;46016;-67
2023/02/25 12:26:08;;;;;;;;;13.50;12.00;;;;;20.28;42.09;100430.69;146616;633;47020;-69
2023/02/25 12:29:47;;;;;;;;;16.25;14.75;;;;;20.19;42.94;100428.88;146620;644;46012;-68
2023/02/25 12:33:45;;;;;;;;;14.25;11.50;;;;;20.08;41.94;100430.53;146621;694;46020;-70
2023/02/25 12:37:33;;;;;;;;;14.50;13.25;;;;;18.80;42.81;100210.28;146616;661;46014;-71
2023/02/25 12:41:29;;;;;;;;;;;;;;;;;;;;;
2023/02/25 12:45:00;;;;;;;;;8.25;6.50;;;;;19.90;41.86;100410.19;146617;569;46016;-73
2023/02/25 12:48:35;;;;;;;;;11.75;10.50;;;;;19.91;41.31;100411.13;146619;625;46020;-67
2023/02/25 12:52:04;;;;;;;;;11.25;8.50;;;;;19.88;41.65;100401.44;146614;601;46016;-69
2023/02/25 12:55:41;;;;;;;;;13.75;11.00;;;;;19.89;42.12;100404.94;146621;653;46020;-70
2023/02/25 12:59:24;;;;;;;;;14.00;13.00;;;;;19.90;42.35;100390.91;146617;566;46016;-72
2023/02/25 13:03:14;;;;;;;;;14.50;13.00;;;;;19.92;42.91;100383.91;146619;679;46020;-70
2023/02/25 13:07:03;;;;;;;;;13.00;12.50;;;;;18.66;44.06;100164.56;146617;654;46019;-69
2023/02/25 13:10:51;;;;;;;;;18.75;15.75;;;;;19.93;45.75;100381.28;146620;581;46020;-69
2023/02/25 13:14:27;;;;;;;;;17.00;13.50;;;;;19.98;44.55;100386.59;146615;569;47012;-69
2023/02/25 13:18:06;;;;;;;;;14.75;11.00;;;;;19.22;43.72;100257.94;146618;626;46020;-70
2023/02/25 13:22:03;;;;;;;;;14.25;11.75;;;;;18.44;46.58;100129.34;146613;579;46910;-69
2023/02/25 13:25:29;;;;;;;;;12.75;11.75;;;;;19.94;44.45;100388.34;146622;675;46010;-68
2023/02/25 13:29:34;;;;;;;;;15.50;11.50;;;;;19.30;45.35;100275.53;146620;642;45017;-68
2023/02/25 13:33:47;;;;;;;;;10.00;9.75;;;;;19.10;45.96;100195.66;146621;581;46020;-68
2023/02/25 13:37:29;;;;;;;;;13.50;10.75;;;;;18.98;43.14;100164.03;146616;631;46016;-68
2023/02/25 13:41:17;;;;;;;;;15.50;13.75;;;;;18.73;41.07;100140.19;146619;569;46012;-69
2023/02/25 13:45:14;;;;;;;;;16.00;14.00;;;;;20.03;42.31;100375.25;146615;565;46016;-71
2023/02/25 13:48:45;;;;;;;;;17.25;16.50;;;;;18.46;42.20;100120.62;146620;618;46012;-69
2023/02/25 13:52:27;;;;;;;;;15.75;13.25;;;;;18.55;41.54;100145.22;146617;570;46016;-69
2023/02/25 13:56:12;;;;;;;;;;;;;;;;;;;;;
2023/02/25 14:00:00;;;;;;;;;11.00;10.00;;;;;18.77;45.89;100183.97;146617;605;46016;-68
2023/02/25 14:03:45;;;;;;;;;15.25;14.00;;;;;20.03;47.32;100390.13;146622;565;46011;-71
2023/02/25 14:07:47;;;;;;;;;;;;;;;;;;;;;
2023/02/25 14:11:36;;;;;;;;;12.00;10.00;;;;;17.72;42.02;100035.00;146623;565;45022;-68
2023/02/25 14:15:13;;;;;;;;;14.50;11.00;;;;;19.64;46.83;100385.41;146613;663;46016;-70
2023/02/25 14:18:58;;;;;;;;;14.50;12.50;;;;;19.62;48.08;100381.03;146620;577;46020;-70
2023/02/25 14:22:46;;;;;;;;;18.25;17.00;;;;;18.96;48.63;100255.09;146616;604;46016;-69
2023/02/25 14:26:22;;;;;;;;;17.75;15.25;;;;;18.20;46.89;100130.88;146619;564;47011;-70
2023/02/25 14:29:49;;;;;;;;;17.25;15.00;;;;;19.72;47.81;100386.37;146614;586;46016;-70
2023/02/25 14:33:17;;;;;;;;;14.00;13.00;;;;;19.78;43.77;100370.62;146620;675;45022;-71
2023/02/25 14:36:56;;;;;;;;;16.25;15.25;;;;;18.44;46.26;100145.09;146616;585;46016;-68
2023/02/25 14:40:25;;;;;;;;;18.00;16.25;;;;;19.77;47.08;100385.53;146619;709;46017;-69
2023/02/25 14:43:51;;;;;;;;;18.75;14.50;;;;;19.79;47.33;100394.34;146617;637;46017;-71
2023/02/25 14:47:20;;;;;;;;;19.25;16.25;;;;;19.72;48.05;100395.16;146617;593;46020;-69
2023/02/25 14:51:25;;;;;;;;;16.50;13.25;;;;;18.29;48.76;100150.22;146619;603;46012;-70
2023/02/25 14:54:59;;;;;;;;;14.75;13.25;;;;;18.10;48.29;100128.13;146617;581;47010;-69
2023/02/25 14:58:41;;;;;;;;;12.00;10.75;;;;;19.47;48.73;100377.34;146616;620;46915;-69
2023/02/25 15:02:19;;;;;;;;;13.50;11.50;;;;;17.99;49.21;100147.25;146613;608;46020;-69
2023/02/25 15:05:51;;;;;;;;;22.75;22.25;;;;;19.39;49.37;100396.56;146618;585;46014;-69
2023/02/25 15:09:42;;;;;;;;;24.00;21.75;;;;;18.54;49.56;100241.50;146618;616;46012;-68
2023/02/25 15:13:16;;;;;;;;;24.50;21.00;;;;;19.34;49.56;100395.63;146615;648;46016;-69
2023/02/25 15:16:38;;;;;;;;;35.75;29.75;;;;;19.29;49.62;100385.94;146621;659;46010;-69
2023/02/25 15:20:15;;;;;;;;;25.25;21.50;;;;;17.94;49.74;100159.44;146616;569;46013;-69
2023/02/25 15:23:45;;;;;;;;;32.75;27.75;;;;;19.20;49.14;100386.72;146613;601;47918;-71